Time;durP1;ratioP1;P1;durP2;ratioP2;P2;SDS_P1;SDS_P2;PMS_P1;PMS_P2;Temp;Humidity;BMP_temperature;BMP_pressure;BME280_temperature;BME280_humidity;BME280_pressure;Samples;Min_cycle;Max_cycle;Signal;HPM_P1;HPM_P2
2022/01/28 00:00:59;;;;;;;0.20;0.20;;;2.50;99.90;;;2.53;100.00;101901.38;4871298;29;20225;-80
2022/01/28 00:03:28;;;;;;;0.10;0.10;;;2.50;99.90;;;2.66;100.00;101901.41;4845213;29;20298;-80
2022/01/28 00:06:17;;;;;;;0.10;0.10;;;;;;;2.59;100.00;101891.31;4877494;29;20263;-80
2022/01/28 00:08:51;;;;;;;0.20;0.20;;;2.80;99.90;;;2.50;100.00;101875.06;4881253;29;20592;-80
2022/01/28 00:11:22;;;;;;;0.10;0.10;;;2.70;99.90;;;2.50;100.00;101878.59;4877612;29;20216;-80
2022/01/28 00:13:57;;;;;;;0.20;0.20;;;2.70;99.90;;;2.47;100.00;101874.88;4893941;29;20216;-79
2022/01/28 00:17:54;;;;;;;0.10;0.10;;;2.70;99.90;;;2.32;100.00;101855.59;4873457;29;20260;-80
2022/01/28 00:20:57;;;;;;;0.10;0.10;;;2.70;99.90;;;2.26;100.00;101863.94;4876068;29;20216;-80
2022/01/28 00:37:08;;;;;;;0.17;0.17;;;2.50;99.90;;;2.21;100.00;101887.13;4882689;29;20236;-80
2022/01/28 00:39:36;;;;;;;0.20;0.20;;;2.40;99.90;;;2.27;100.00;101904.00;4864742;29;20212;-80
2022/01/28 00:42:05;;;;;;;0.10;0.10;;;2.40;99.90;;;2.35;100.00;101910.63;4877655;29;20215;-80
2022/01/28 00:44:33;;;;;;;0.10;0.10;;;2.50;99.90;;;2.29;100.00;101912.84;4901842;29;20204;-80
2022/01/28 00:47:02;;;;;;;0.10;0.10;;;2.50;99.90;;;2.05;100.00;101892.16;4876636;29;20243;-80
2022/01/28 00:49:30;;;;;;;0.13;0.13;;;2.40;99.90;;;1.92;100.00;101879.09;4874032;29;20223;-79
2022/01/28 00:51:59;;;;;;;0.10;0.10;;;2.30;99.90;;;1.94;100.00;101908.81;4875234;29;20223;-80
2022/01/28 00:55:14;;;;;;;0.20;0.20;;;2.30;99.90;;;1.90;100.00;101915.50;4879188;29;20216;-80
2022/01/28 00:58:26;;;;;;;0.65;0.65;;;1.50;99.90;;;1.91;100.00;101919.94;4897172;29;20227;-79
2022/01/28 01:01:21;;;;;;;0.10;0.10;;;2.20;99.90;;;1.90;100.00;101927.66;4876243;29;20211;-80
2022/01/28 01:03:57;;;;;;;0.20;0.20;;;2.10;99.90;;;1.81;100.00;101922.72;4879131;29;20204;-80
2022/01/28 01:06:27;;;;;;;0.20;0.20;;;2.10;99.90;;;1.91;100.00;101947.72;4877309;29;20236;-80
2022/01/28 01:09:03;;;;;;;0.20;0.20;;;2.10;99.90;;;1.89;100.00;101941.50;4881753;29;20226;-80
2022/01/28 01:11:41;;;;;;;0.13;0.13;;;2.00;99.90;;;1.90;100.00;101951.13;4877487;29;20216;-80
2022/01/28 01:14:18;;;;;;;0.10;0.10;;;2.10;99.90;;;1.93;100.00;101959.16;4896121;29;20215;-80
2022/01/28 01:19:48;;;;;;;0.20;0.20;;;2.10;99.90;;;1.89;100.00;101955.44;4881638;29;20200;-80
2022/01/28 01:22:35;;;;;;;0.20;0.20;;;2.10;99.90;;;1.88;100.00;101955.34;4847200;29;20211;-80
2022/01/28 01:25:33;;;;;;;0.20;0.20;;;2.00;99.90;;;1.89;100.00;101968.50;4878480;29;20211;-79
2022/01/28 01:28:52;;;;;;;0.10;0.10;;;0.90;99.90;;;1.97;100.00;101975.94;4867696;29;20224;-80
2022/01/28 01:32:13;;;;;;;0.10;0.10;;;2.10;99.90;;;1.88;100.00;101973.59;4874031;29;20219;-80
2022/01/28 01:35:13;;;;;;;0.10;0.10;;;2.00;99.90;;;1.88;100.00;101981.44;4884987;29;20204;-80
2022/01/28 01:38:32;;;;;;;0.10;0.10;;;2.10;99.90;;;1.90;100.00;101985.97;4881719;29;20806;-80
2022/01/28 01:41:23;;;;;;;0.20;0.20;;;;;;;1.93;100.00;101987.88;4862624;29;20219;-80
2022/01/28 02:03:24;;;;;;;0.10;0.10;;;2.20;99.90;;;2.49;100.00;102019.50;4907338;29;20209;-80
2022/01/28 02:05:59;;;;;;;0.20;0.20;;;2.30;99.90;;;2.57;100.00;102008.75;4899221;24;20239;-82
2022/01/28 02:08:33;;;;;;;0.10;0.10;;;2.40;99.90;;;2.68;100.00;102014.72;4902065;29;20222;-82
2022/01/28 02:11:01;;;;;;;0.10;0.10;;;2.50;99.90;;;2.75;100.00;102010.81;4885699;29;20296;-82
2022/01/28 02:13:34;;;;;;;0.10;0.10;;;2.60;99.90;;;2.96;100.00;102017.41;4899385;29;20204;-82
2022/01/28 02:16:03;;;;;;;0.40;0.40;;;2.70;99.90;;;3.09;100.00;102027.84;4902375;29;20245;-82
2022/01/28 02:18:31;;;;;;;0.10;0.10;;;2.90;99.90;;;2.99;100.00;102006.25;4902211;29;20230;-82
2022/01/28 02:21:11;;;;;;;0.10;0.10;;;2.90;99.90;;;3.10;100.00;102015.69;4902762;29;20218;-82
2022/01/28 02:23:48;;;;;;;0.20;0.20;;;3.00;99.90;;;3.20;100.00;102020.69;4907113;29;20219;-82
2022/01/28 02:26:17;;;;;;;0.20;0.20;;;3.10;99.90;;;3.11;100.00;102007.06;4903644;29;20249;-82
2022/01/28 02:28:50;;;;;;;0.10;0.10;;;3.10;99.90;;;3.07;100.00;101998.09;4900842;29;20219;-82
2022/01/28 02:31:22;;;;;;;0.20;0.20;;;3.10;99.90;;;3.06;100.00;101992.78;4917524;29;20207;-82
2022/01/28 02:33:54;;;;;;;0.20;0.20;;;3.10;99.90;;;3.04;100.00;101981.31;4885296;29;20206;-82
2022/01/28 02:36:24;;;;;;;0.20;0.20;;;3.10;99.90;;;3.20;100.00;101994.56;4904485;29;20235;-83
2022/01/28 02:38:54;;;;;;;0.20;0.20;;;3.10;99.90;;;3.19;100.00;101985.81;4910342;29;20227;-82
2022/01/28 02:41:25;;;;;;;0.20;0.20;;;3.20;99.90;;;3.09;100.00;101965.13;4922940;29;20222;-83
2022/01/28 02:44:17;;;;;;;0.10;0.10;;;3.20;99.90;;;3.20;100.00;101973.66;4894034;29;20230;-82
2022/01/28 02:46:58;;;;;;;0.20;0.20;;;3.20;99.90;;;3.28;100.00;101977.66;4899878;29;20203;-82
2022/01/28 02:49:33;;;;;;;0.17;0.17;;;3.20;99.90;;;3.19;100.00;101957.06;4901388;29;20210;-82
2022/01/28 02:52:03;;;;;;;0.20;0.20;;;3.30;99.90;;;3.25;100.00;101969.59;4911342;29;20218;-82
2022/01/28 02:54:39;;;;;;;0.40;0.40;;;3.30;99.90;;;3.34;100.00;101978.03;4916354;29;20211;-81
2022/01/28 02:57:08;;;;;;;0.40;0.40;;;3.30;99.90;;;3.29;100.00;101963.75;4892802;29;20213;-82
2022/01/28 02:59:36;;;;;;;0.10;0.10;;;3.40;99.90;;;3.37;100.00;101964.25;4891086;29;20220;-83
2022/01/28 03:02:06;;;;;;;0.38;0.38;;;3.40;99.90;;;3.28;100.00;101956.72;4917692;29;20218;-82
2022/01/28 03:07:04;;;;;;;0.20;0.20;;;3.30;99.90;;;3.33;100.00;101960.53;4917158;29;20211;-82
2022/01/28 03:10:24;;;;;;;0.10;0.10;;;3.30;99.90;;;3.42;100.00;101968.94;4881519;29;20208;-82
2022/01/28 03:13:12;;;;;;;0.20;0.20;;;3.40;99.90;;;3.36;100.00;101970.28;4924943;29;20242;-82
2022/01/28 03:15:26;;;;;;;0.20;0.20;;;3.40;99.90;;;3.32;100.00;101974.41;4916744;29;20243;-82
2022/01/28 03:18:07;;;;;;;0.13;0.13;;;3.40;99.90;;;3.27;100.00;101960.16;4891310;29;20232;-82
2022/01/28 03:20:40;;;;;;;0.10;0.10;;;3.40;99.90;;;3.37;100.00;101974.69;4903438;29;20214;-82
2022/01/28 03:23:08;;;;;;;0.20;0.20;;;3.40;99.90;;;3.26;100.00;101968.81;4902531;29;20215;-82
2022/01/28 03:25:42;;;;;;;0.20;0.20;;;3.40;99.90;;;3.24;100.00;101967.81;4922626;29;20230;-82
2022/01/28 03:28:11;;;;;;;0.10;0.10;;;3.40;99.90;;;3.29;100.00;101995.13;4903023;29;20198;-82
2022/01/28 03:30:40;;;;;;;0.20;0.20;;;;;;;3.24;100.00;101977.34;4899553;29;20212;-82
2022/01/28 03:33:34;;;;;;;0.20;0.20;;;3.40;99.90;;;3.16;100.00;101980.41;4901785;29;20212;-82
2022/01/28 03:36:07;;;;;;;0.20;0.20;;;3.30;99.90;;;3.19;100.00;101998.88;4916490;29;20235;-82
2022/01/28 03:38:37;;;;;;;0.20;0.20;;;3.30;99.90;;;3.20;100.00;102003.31;4900432;29;20219;-83
2022/01/28 03:41:12;;;;;;;0.20;0.20;;;3.30;99.90;;;3.17;100.00;102015.28;4876671;29;20211;-83
2022/01/28 03:43:40;;;;;;;0.20;0.20;;;3.30;99.90;;;3.19;100.00;102019.81;4904730;29;20206;-82
2022/01/28 03:46:09;;;;;;;0.10;0.10;;;3.30;99.90;;;3.11;100.00;102017.50;4919474;29;20242;-82
2022/01/28 03:48:37;;;;;;;0.20;0.20;;;3.30;99.90;;;3.12;100.00;102027.16;4898691;29;20223;-82
2022/01/28 03:51:06;;;;;;;0.68;0.68;;;3.30;99.90;;;3.00;100.00;102018.53;4915141;29;20219;-83
2022/01/28 03:53:35;;;;;;;0.20;0.20;;;3.20;99.90;;;2.94;100.00;102013.81;4899740;29;20234;-82
2022/01/28 03:56:03;;;;;;;0.10;0.10;;;3.20;99.90;;;2.95;100.00;102027.78;4880999;29;20247;-83
2022/01/28 03:58:31;;;;;;;0.10;0.10;;;3.10;99.90;;;2.91;100.00;102038.84;4899904;29;20232;-82
2022/01/28 04:00:59;;;;;;;0.20;0.20;;;3.10;99.90;;;2.82;100.00;102032.22;4911762;29;20214;-82
2022/01/28 04:11:32;;;;;;;0.10;0.10;;;3.00;99.90;;;2.93;100.00;102073.81;4894432;29;20246;-82
2022/01/28 04:14:14;;;;;;;0.10;0.10;;;3.00;99.90;;;3.01;100.00;102077.84;4912989;29;20219;-82
2022/01/28 04:19:29;;;;;;;0.10;0.10;;;3.10;99.90;;;2.81;100.00;102050.41;4891078;29;20236;-82
2022/01/28 04:21:57;;;;;;;0.20;0.20;;;3.00;99.90;;;2.88;100.00;102071.81;4881244;29;20203;-83
2022/01/28 04:24:25;;;;;;;0.20;0.20;;;3.00;99.90;;;2.87;100.00;102076.94;4919483;29;20215;-83
2022/01/28 04:26:53;;;;;;;0.20;0.20;;;2.90;99.90;;;2.82;100.00;102062.66;4897592;29;20211;-82
2022/01/28 04:29:22;;;;;;;0.10;0.10;;;2.90;99.90;;;2.87;100.00;102077.81;4907692;29;20215;-83
2022/01/28 04:31:49;;;;;;;0.20;0.20;;;2.90;99.90;;;2.86;100.00;102082.97;4902244;29;20222;-83
2022/01/28 04:34:19;;;;;;;0.20;0.20;;;2.90;99.90;;;3.00;100.00;102099.53;4913047;29;20585;-82
2022/01/28 04:37:07;;;;;;;0.17;0.17;;;3.00;99.90;;;2.80;100.00;102077.31;4913832;29;20222;-82
2022/01/28 04:40:04;;;;;;;0.15;0.15;;;3.00;99.90;;;2.83;100.00;102080.13;4915639;29;20219;-83
2022/01/28 04:47:58;;;;;;;0.20;0.20;;;3.00;99.90;;;2.92;100.00;102091.19;4892377;29;20296;-83
2022/01/28 05:23:24;;;;;;;0.10;0.10;;;2.60;99.90;;;2.37;100.00;102116.19;4891610;29;20211;-82
2022/01/28 05:28:16;;;;;;;0.10;0.10;;;2.60;99.90;;;2.46;100.00;102136.81;4882879;29;20203;-83
2022/01/28 05:30:44;;;;;;;0.20;0.20;;;2.60;99.90;;;2.44;100.00;102136.69;4899220;29;20203;-82
2022/01/28 05:33:13;;;;;;;0.20;0.20;;;2.50;99.90;;;2.32;100.00;102119.28;4898688;29;20203;-82
2022/01/28 05:35:41;;;;;;;0.20;0.20;;;2.50;99.90;;;2.34;100.00;102135.97;4901350;29;20235;-83
2022/01/28 05:38:09;;;;;;;0.20;0.20;;;2.50;99.90;;;2.39;100.00;102147.63;4878433;29;20226;-82
2022/01/28 05:40:37;;;;;;;0.20;0.20;;;2.50;99.90;;;2.42;100.00;102150.44;4900314;29;20746;-82
2022/01/28 05:43:05;;;;;;;0.20;0.20;;;2.50;99.90;;;2.36;100.00;102139.59;4897473;29;20219;-82
2022/01/28 05:45:33;;;;;;;0.10;0.10;;;2.50;99.90;;;2.39;100.00;102152.84;4900839;29;20246;-82
2022/01/28 05:48:01;;;;;;;0.10;0.10;;;2.50;99.90;;;2.26;100.00;102135.44;4909189;29;20657;-82
2022/01/28 05:50:29;;;;;;;0.28;0.28;;;2.50;99.90;;;2.48;100.00;102167.44;4900210;29;20207;-83
2022/01/28 05:52:57;;;;;;;0.20;0.20;;;2.50;99.90;;;2.60;100.00;102188.31;4883824;29;20207;-82
2022/01/28 05:55:25;;;;;;;0.20;0.20;;;2.50;99.90;;;2.52;100.00;102176.41;4912418;29;20234;-82
2022/01/28 05:57:53;;;;;;;0.20;0.20;;;2.50;99.90;;;2.52;100.00;102169.47;4895773;29;20214;-83
2022/01/28 06:00:21;;;;;;;0.20;0.20;;;2.60;99.90;;;2.46;100.00;102170.75;4915733;29;20223;-82
2022/01/28 06:02:49;;;;;;;0.10;0.10;;;2.60;99.90;;;2.53;100.00;102193.88;4917110;29;20208;-81
2022/01/28 06:05:18;;;;;;;0.20;0.20;;;2.60;99.90;;;2.57;100.00;102194.19;4907310;29;20235;-81
2022/01/28 06:07:46;;;;;;;0.75;0.75;;;2.60;99.90;;;2.51;100.00;102195.47;4906718;29;20212;-81
2022/01/28 06:10:17;;;;;;;0.20;0.20;;;2.60;99.90;;;2.62;100.00;102224.97;4906033;29;20211;-81
2022/01/28 06:12:49;;;;;;;0.20;0.20;;;2.60;99.90;;;2.51;100.00;102209.44;4904848;29;20212;-82
2022/01/28 06:15:18;;;;;;;0.20;0.20;;;2.60;99.90;;;2.51;100.00;102205.94;4884571;29;20242;-82
2022/01/28 06:17:46;;;;;;;0.20;0.20;;;2.60;99.90;;;2.49;100.00;102204.91;4897275;29;20230;-82
2022/01/28 06:20:19;;;;;;;0.20;0.20;;;2.60;99.90;;;2.50;100.00;102209.34;4898528;29;20731;-81
2022/01/28 06:22:48;;;;;;;0.20;0.20;;;2.60;99.90;;;2.49;100.00;102200.59;4897013;29;20304;-81
2022/01/28 06:25:17;;;;;;;0.20;0.20;;;2.60;99.90;;;2.58;100.00;102205.53;4884653;29;20598;-82
2022/01/28 06:27:45;;;;;;;0.20;0.20;;;2.60;99.90;;;2.49;100.00;102200.59;4896372;29;20215;-81
2022/01/28 06:30:13;;;;;;;0.30;0.30;;;2.60;99.90;;;2.39;100.00;102192.91;4885606;29;20212;-81
2022/01/28 06:32:41;;;;;;;0.30;0.30;;;2.60;99.90;;;2.24;100.00;102174.47;4917275;29;20234;-81
2022/01/28 06:35:10;;;;;;;0.20;0.20;;;2.50;99.90;;;2.32;100.00;102181.94;4885457;29;20235;-81
2022/01/28 06:37:44;;;;;;;0.20;0.20;;;2.50;99.90;;;2.36;100.00;102202.25;4896494;29;20215;-81
2022/01/28 06:40:17;;;;;;;0.38;0.38;;;2.50;99.90;;;2.40;100.00;102206.88;4917629;29;20234;-82
2022/01/28 06:42:45;;;;;;;0.10;0.10;;;2.40;99.90;;;2.54;100.00;102216.59;4887438;29;20211;-81
2022/01/28 06:45:14;;;;;;;0.20;0.20;;;;;;;2.55;100.00;102216.69;4887261;29;20232;-81
2022/01/28 06:47:42;;;;;;;0.30;0.30;;;2.60;99.90;;;2.51;100.00;102204.22;4909973;29;20215;-82
2022/01/28 06:50:11;;;;;;;0.20;0.20;;;;;;;2.47;100.00;102198.69;4916476;29;20215;-81
2022/01/28 06:52:41;;;;;;;0.35;0.35;;;2.60;99.90;;;2.47;100.00;102199.59;4905316;29;20214;-80
2022/01/28 06:55:14;;;;;;;0.40;0.40;;;2.60;99.90;;;2.46;100.00;102208.22;4886067;29;20239;-81
2022/01/28 06:57:43;;;;;;;0.10;0.10;;;2.60;99.90;;;2.45;100.00;102203.78;4909211;29;20334;-80
2022/01/28 07:00:12;;;;;;;0.20;0.20;;;2.50;99.90;;;2.39;100.00;102194.63;4910378;29;20226;-81
2022/01/28 07:02:41;;;;;;;0.20;0.20;;;;;;;2.46;100.00;102207.31;4900154;29;20199;-80
2022/01/28 07:05:10;;;;;;;0.22;0.22;;;2.60;99.90;;;2.41;100.00;102211.31;4917588;29;20697;-80
2022/01/28 07:07:38;;;;;;;0.20;0.20;;;2.50;99.90;;;2.38;100.00;102214.59;4904142;29;20216;-81
2022/01/28 07:10:06;;;;;;;0.20;0.20;;;2.50;99.90;;;2.44;100.00;102233.31;4877711;29;20207;-81
2022/01/28 07:12:34;;;;;;;0.10;0.10;;;2.50;99.90;;;2.41;100.00;102227.88;4887165;29;20207;-80
2022/01/28 07:15:02;;;;;;;0.10;0.10;;;-0.20;99.90;;;2.46;100.00;102241.25;4884891;29;20235;-81
2022/01/28 07:17:30;;;;;;;0.10;0.10;;;3.30;99.90;;;2.41;100.00;102238.31;4886627;29;20214;-81
2022/01/28 07:19:58;;;;;;;0.20;0.20;;;2.60;99.90;;;2.43;100.00;102255.00;4900679;29;20206;-82
2022/01/28 07:22:26;;;;;;;0.20;0.20;;;2.60;99.90;;;2.46;100.00;102262.16;4901191;29;20222;-80
2022/01/28 07:24:54;;;;;;;0.20;0.20;;;2.60;99.90;;;2.44;100.00;102264.66;4887858;29;20223;-81
2022/01/28 07:27:22;;;;;;;0.20;0.20;;;2.60;99.90;;;2.44;100.00;102256.81;4904112;29;20203;-81
2022/01/28 07:29:51;;;;;;;0.20;0.20;;;2.60;99.90;;;2.44;100.00;102259.44;4903048;29;20196;-81
2022/01/28 07:32:19;;;;;;;0.10;0.10;;;2.60;99.90;;;2.44;100.00;102264.66;4899318;29;20212;-81
2022/01/28 07:34:47;;;;;;;0.20;0.20;;;2.60;99.90;;;2.50;100.00;102272.91;4889868;29;20231;-80
2022/01/28 07:37:15;;;;;;;0.20;0.20;;;2.60;99.90;;;2.60;100.00;102287.56;4918575;29;20215;-81
2022/01/28 07:39:43;;;;;;;0.10;0.10;;;2.70;99.90;;;2.69;100.00;102289.91;4888249;29;20216;-81
2022/01/28 07:42:11;;;;;;;0.10;0.10;;;2.70;99.90;;;2.68;100.00;102285.50;4889615;29;20230;-80
2022/01/28 07:44:39;;;;;;;0.10;0.10;;;2.70;99.90;;;2.79;100.00;102302.81;4882457;29;20227;-80
2022/01/28 07:47:07;;;;;;;0.10;0.10;;;2.80;99.90;;;2.79;100.00;102301.13;4887111;29;20207;-81
2022/01/28 07:49:35;;;;;;;0.20;0.20;;;2.80;99.90;;;2.98;100.00;102318.06;4900428;29;20204;-82
2022/01/28 07:52:04;;;;;;;0.20;0.20;;;2.90;99.90;;;3.11;100.00;102324.25;4902534;29;20226;-81
2022/01/28 07:54:31;;;;;;;0.30;0.30;;;3.10;99.90;;;3.24;100.00;102331.25;4884049;29;20203;-80
2022/01/28 07:57:01;;;;;;;0.20;0.20;;;3.20;99.90;;;3.34;100.00;102322.31;4910677;29;20570;-81
2022/01/28 07:59:29;;;;;;;0.17;0.17;;;3.20;99.90;;;3.31;100.00;102315.16;4884766;29;20664;-82
2022/01/28 08:01:57;;;;;;;0.20;0.20;;;3.30;99.90;;;3.39;100.00;102328.75;4899870;29;20219;-80
2022/01/28 08:04:25;;;;;;;0.20;0.20;;;3.30;99.90;;;3.40;100.00;102333.19;4898023;29;20200;-80
2022/01/28 08:06:53;;;;;;;0.30;0.30;;;3.40;99.90;;;3.38;100.00;102322.63;4940976;23;20320;-80
2022/01/28 08:09:21;;;;;;;0.20;0.20;;;3.40;99.90;;;3.42;100.00;102329.88;4895217;29;20234;-84
2022/01/28 08:11:49;;;;;;;0.15;0.15;;;3.40;99.90;;;3.41;100.00;102328.06;4878886;29;20207;-84
2022/01/28 08:14:17;;;;;;;0.13;0.13;;;3.50;99.90;;;3.45;100.00;102332.69;4908311;29;20223;-84
2022/01/28 08:16:44;;;;;;;0.10;0.10;;;3.50;99.90;;;3.45;100.00;102330.09;4895372;29;20238;-84
2022/01/28 08:19:13;;;;;;;0.20;0.20;;;3.50;99.90;;;3.49;100.00;102333.81;4878847;29;20208;-84
2022/01/28 08:21:40;;;;;;;0.20;0.20;;;3.50;99.90;;;3.48;100.00;102339.84;4913530;29;20227;-84
2022/01/28 08:24:09;;;;;;;0.17;0.17;;;;;;;3.49;100.00;102334.72;4879922;29;20215;-84
2022/01/28 08:26:37;;;;;;;0.95;0.95;;;3.60;99.90;;;3.53;100.00;102341.06;4884395;29;20227;-84
2022/01/28 08:29:06;;;;;;;0.20;0.20;;;;;;;3.55;100.00;102339.47;4901787;29;20219;-84
2022/01/28 08:31:35;;;;;;;0.20;0.20;;;;;;;3.59;100.00;102359.78;4866528;29;20210;-84
2022/01/28 08:34:03;;;;;;;0.30;0.30;;;3.70;99.90;;;3.68;100.00;102363.03;4901251;29;20301;-84
2022/01/28 08:36:33;;;;;;;0.30;0.30;;;3.70;99.90;;;3.78;100.00;102369.78;4912274;29;20231;-84
2022/01/28 08:39:05;;;;;;;0.20;0.20;;;;;;;3.85;100.00;102375.53;4911851;29;20219;-84
2022/01/28 08:41:36;;;;;;;0.22;0.22;;;3.90;99.90;;;3.83;100.00;102364.06;4881656;29;20223;-84
2022/01/28 08:44:05;;;;;;;0.30;0.30;;;;;;;3.94;100.00;102358.66;4881572;29;20222;-84
2022/01/28 08:46:33;;;;;;;0.20;0.20;;;4.00;99.90;;;3.98;100.00;102363.28;4894909;29;20235;-85
2022/01/28 08:49:03;;;;;;;0.20;0.20;;;4.10;99.90;;;4.09;100.00;102363.19;4901493;29;20223;-84
2022/01/28 08:51:37;;;;;;;0.20;0.20;;;;;;;4.14;100.00;102367.03;4902263;29;20208;-84
2022/01/28 08:54:05;;;;;;;0.20;0.20;;;4.20;99.90;;;4.19;100.00;102356.84;4882482;29;20215;-84
2022/01/28 08:56:33;;;;;;;0.30;0.30;;;4.30;99.90;;;4.25;100.00;102344.16;4906036;29;20258;-83
2022/01/28 08:59:20;;;;;;;0.22;0.22;;;;;;;4.26;100.00;102345.97;4888303;29;20218;-85
2022/01/28 09:01:48;;;;;;;0.30;0.30;;;;;;;4.24;100.00;102334.47;4865885;29;20227;-85
2022/01/28 09:04:18;;;;;;;0.20;0.20;;;;;;;4.21;100.00;102329.06;4882089;29;20203;-85
2022/01/28 09:06:46;;;;;;;0.20;0.20;;;;;;;4.21;100.00;102334.28;4884790;29;20239;-84
2022/01/28 09:09:18;;;;;;;0.30;0.30;;;;;;;4.31;100.00;102336.69;4879826;29;20215;-84
2022/01/28 09:12:25;;;;;;;0.40;0.40;;;;;;;4.36;100.00;102334.38;4909324;29;20207;-84
2022/01/28 09:14:35;;;;;;;0.38;0.38;;;4.40;99.90;;;4.34;100.00;102331.66;4889749;29;20226;-84
2022/01/28 09:17:03;;;;;;;0.30;0.30;;;4.40;99.90;;;4.39;100.00;102332.84;4903188;29;20238;-84
2022/01/28 09:19:31;;;;;;;0.22;0.22;;;4.50;99.90;;;4.38;100.00;102331.03;4902166;29;20218;-85
2022/01/28 09:21:59;;;;;;;0.30;0.30;;;4.50;99.90;;;4.35;100.00;102324.69;4899285;29;20232;-84
2022/01/28 09:24:27;;;;;;;0.30;0.30;;;4.50;99.90;;;4.35;100.00;102330.84;4913933;29;20218;-85
2022/01/28 09:26:55;;;;;;;0.25;0.25;;;;;;;4.44;100.00;102341.00;4879571;29;20232;-85
2022/01/28 09:29:23;;;;;;;0.30;0.30;;;4.50;99.90;;;4.55;100.00;102354.78;4895764;29;20677;-85
2022/01/28 09:31:51;;;;;;;0.20;0.20;;;;;;;4.60;100.00;102353.38;4898803;29;20220;-84
2022/01/28 09:34:20;;;;;;;0.22;0.22;;;;;;;4.72;100.00;102368.16;4896078;29;20212;-85
2022/01/28 09:36:48;;;;;;;0.30;0.30;;;4.80;99.90;;;4.78;100.00;102365.00;4897856;29;20708;-84
2022/01/28 09:39:16;;;;;;;0.30;0.30;;;4.80;99.90;;;4.85;100.00;102368.94;4898180;29;20215;-85
2022/01/28 09:41:47;;;;;;;0.25;0.25;;;4.90;99.90;;;4.87;100.00;102362.97;4882952;29;20235;-84
2022/01/28 09:44:19;;;;;;;0.30;0.30;;;4.90;99.90;;;5.05;100.00;102376.31;4879725;29;20556;-85
2022/01/28 09:46:47;;;;;;;0.10;0.10;;;;;;;5.11;100.00;102361.88;4913388;29;20230;-84
2022/01/28 09:49:20;;;;;;;0.30;0.30;;;5.10;99.90;;;5.14;100.00;102359.44;4887932;29;20215;-84
2022/01/28 09:51:48;;;;;;;0.20;0.20;;;5.20;99.90;;;5.09;100.00;102350.38;4927223;29;20208;-83
2022/01/28 09:54:16;;;;;;;0.30;0.30;;;5.20;99.90;;;5.27;100.00;102383.84;4913400;29;20218;-85
2022/01/28 09:56:45;;;;;;;0.30;0.30;;;;;;;5.32;100.00;102379.78;4864821;29;20238;-85
2022/01/28 09:59:12;;;;;;;0.20;0.20;;;5.30;99.90;;;5.35;100.00;102373.00;4897957;29;20211;-84
2022/01/28 10:01:52;;;;;;;0.10;0.10;;;5.30;99.90;;;5.36;100.00;102366.03;4894810;29;20235;-86
2022/01/28 10:04:21;;;;;;;1.00;1.00;;;;;;;5.42;100.00;102362.06;4912704;29;20562;-87
2022/01/28 10:06:49;;;;;;;0.25;0.25;;;;;;;5.56;100.00;102359.34;4881191;29;20232;-86
2022/01/28 10:09:19;;;;;;;0.10;0.10;;;5.60;99.90;;;5.60;100.00;102350.84;4900319;29;20215;-88
2022/01/28 10:11:50;;;;;;;0.20;0.20;;;;;;;5.75;100.00;102357.00;4899040;29;20203;-85
2022/01/28 10:14:22;;;;;;;0.10;0.10;;;;;;;5.66;100.00;102344.25;4884986;29;20219;-82
2022/01/28 10:16:59;;;;;;;0.20;0.20;;;5.70;99.90;;;5.68;100.00;102331.22;4895909;29;20281;-85
2022/01/28 10:19:40;;;;;;;0.10;0.10;;;5.80;99.90;;;6.01;100.00;102358.56;4884204;29;20227;-85
2022/01/28 10:22:19;;;;;;;0.20;0.20;;;5.90;99.90;;;6.10;100.00;102335.44;4899656;29;20238;-86
2022/01/28 10:25:23;;;;;;;0.20;0.10;;;6.10;99.90;;;6.31;100.00;102344.56;4897413;29;20219;-86
2022/01/28 10:28:05;;;;;;;0.20;0.20;;;6.20;99.90;;;6.21;100.00;102315.03;4917687;29;20208;-85
2022/01/28 10:30:42;;;;;;;0.20;0.20;;;6.20;99.90;;;6.09;100.00;102308.28;4909178;29;20211;-86
2022/01/28 10:33:16;;;;;;;0.20;0.20;;;6.20;99.90;;;6.07;100.00;102303.75;4907058;29;20216;-85
2022/01/28 10:35:55;;;;;;;0.30;0.30;;;6.30;99.90;;;6.00;100.00;102292.00;4889046;29;20234;-86
2022/01/28 10:38:38;;;;;;;0.40;0.40;;;6.20;99.90;;;5.97;100.00;102301.44;4912098;29;20219;-84
2022/01/28 10:41:25;;;;;;;0.20;0.20;;;6.20;99.90;;;5.98;100.00;102313.75;4895146;29;20207;-86
2022/01/28 10:43:58;;;;;;;0.20;0.20;;;6.20;99.90;;;6.03;100.00;102328.94;4895936;29;20216;-85
2022/01/28 10:46:34;;;;;;;0.30;0.30;;;6.20;99.90;;;5.86;100.00;102302.50;4884662;29;20623;-86
2022/01/28 10:49:08;;;;;;;0.10;0.10;;;6.10;99.90;;;5.74;100.00;102307.94;4868575;29;20215;-87
2022/01/28 10:51:47;;;;;;;0.30;0.30;;;6.10;99.90;;;5.78;100.00;102323.97;4865706;29;20212;-86
2022/01/28 10:54:22;;;;;;;0.25;0.25;;;6.10;99.90;;;5.81;100.00;102344.25;4899074;29;21509;-83
2022/01/28 10:56:56;;;;;;;0.20;0.20;;;6.10;99.90;;;5.75;100.00;102325.50;4889723;29;20239;-86
2022/01/28 10:59:36;;;;;;;0.30;0.30;;;6.10;99.90;;;5.75;100.00;102325.50;4898461;29;20215;-87
2022/01/28 11:02:06;;;;;;;0.20;0.20;;;6.10;99.90;;;5.76;100.00;102332.56;4882430;29;20234;-84
2022/01/28 11:04:35;;;;;;;0.10;0.10;;;6.10;99.90;;;5.82;100.00;102346.03;4892664;29;20207;-86
2022/01/28 11:07:04;;;;;;;0.20;0.20;;;6.10;99.90;;;5.94;100.00;102359.94;4876729;29;20239;-86
2022/01/28 11:09:32;;;;;;;0.10;0.10;;;;;;;5.97;100.00;102346.06;4921843;29;20215;-87
2022/01/28 11:12:00;;;;;;;0.10;0.10;;;6.20;99.90;;;6.03;100.00;102344.72;4899447;29;20207;-86
2022/01/28 11:14:29;;;;;;;0.20;0.20;;;;;;;6.22;100.00;102362.44;4868621;29;20211;-85
2022/01/28 11:16:59;;;;;;;0.20;0.20;;;6.30;99.90;;;6.30;100.00;102341.84;4887305;29;20223;-87
2022/01/28 11:19:32;;;;;;;0.35;0.35;;;6.30;99.90;;;6.32;100.00;102327.06;4881036;29;20215;-86
2022/01/28 11:22:35;;;;;;;0.20;0.20;;;6.40;99.90;;;6.65;100.00;102349.09;4905407;29;20222;-87
2022/01/28 11:25:36;;;;;;;0.20;0.20;;;6.60;99.90;;;6.58;100.00;102320.66;4895398;29;20688;-85
2022/01/28 11:28:11;;;;;;;0.17;0.17;;;6.70;99.90;;;6.29;100.00;102259.47;4889270;29;20207;-86
2022/01/28 11:30:51;;;;;;;0.10;0.10;;;6.70;99.90;;;6.10;100.00;102243.50;4898798;29;20202;-85
2022/01/28 11:33:19;;;;;;;0.10;0.10;;;6.60;99.90;;;6.08;100.00;102269.69;4876007;29;20211;-86
2022/01/28 11:35:49;;;;;;;0.20;0.20;;;6.50;99.90;;;5.97;100.00;102255.06;4897665;29;20230;-86
2022/01/28 11:38:28;;;;;;;0.10;0.10;;;6.40;99.90;;;6.36;100.00;102314.19;4897200;29;20211;-87
2022/01/28 11:41:17;;;;;;;0.10;0.10;;;6.40;99.90;;;6.42;100.00;102282.97;4890792;29;20215;-86
2022/01/28 11:43:53;;;;;;;0.20;0.20;;;6.50;99.90;;;6.74;100.00;102315.44;4910919;29;20223;-86
2022/01/28 11:46:31;;;;;;;0.20;0.20;;;6.80;99.90;;;6.84;100.00;102309.84;4910096;29;20234;-86
2022/01/28 11:49:04;;;;;;;0.10;0.10;;;6.80;99.90;;;6.91;100.00;102282.13;4903386;29;20211;-86
2022/01/28 11:51:43;;;;;;;0.20;0.20;;;6.90;99.90;;;7.00;100.00;102262.47;4897601;29;20203;-86
2022/01/28 11:54:25;;;;;;;0.20;0.20;;;7.20;99.90;;;7.25;100.00;102275.19;4893862;29;20204;-86
2022/01/28 11:57:01;;;;;;;0.10;0.10;;;7.30;99.90;;;7.23;100.00;102236.47;4897372;29;20234;-86
2022/01/28 11:59:33;;;;;;;0.30;0.30;;;7.30;99.90;;;7.23;100.00;102237.38;4908472;29;20215;-88
2022/01/28 12:02:16;;;;;;;0.20;0.20;;;7.40;99.90;;;7.24;100.00;102223.38;4888228;29;20210;-88
2022/01/28 12:04:46;;;;;;;0.20;0.20;;;;;;;7.49;100.00;102250.94;4917657;29;20207;-86
2022/01/28 12:07:21;;;;;;;0.32;0.32;;;7.40;99.90;;;7.23;100.00;102176.84;4893408;29;20246;-86
2022/01/28 12:09:55;;;;;;;0.20;0.20;;;7.50;99.90;;;7.45;100.00;102185.81;4881445;29;20211;-84
2022/01/28 12:12:56;;;;;;;0.20;0.20;;;7.50;99.90;;;7.06;100.00;102139.16;4895266;29;20207;-86
2022/01/28 12:15:31;;;;;;;0.20;0.20;;;7.40;99.90;;;7.20;100.00;102174.06;4925854;29;20575;-85
2022/01/28 12:18:12;;;;;;;0.20;0.20;;;7.40;99.90;;;7.20;100.00;102166.16;4910035;29;20218;-85
2022/01/28 12:20:58;;;;;;;0.30;0.30;;;7.60;99.90;;;7.50;100.00;102198.38;4893246;29;20215;-85
2022/01/28 12:23:32;;;;;;;0.20;0.20;;;7.70;99.90;;;7.66;100.00;102219.34;4909880;29;20224;-84